El Mirador Airport


Codes: FALQ/
Name: El Mirador Airport
City: Ardmore
Country: South Africa
Elevation: 3897 ft.

Photos at El Mirador Airport


   Photos courtesy of SpottingLog. You can add your own sightings and photos by signing up for a free trial today.



No photos found.

Weather at El Mirador Airport


Time (UTC)DescriptionTempratureWindCloud coverageVisibilityPressureHumidity
25-Jun-2024 15:00Clear Sky19°C2 mph, E1%10000m1028hPa29%
25-Jun-2024 18:00Clear Sky14°C4 mph, S1%10000m1030hPa47%
25-Jun-2024 21:00Clear Sky10°C4 mph, SW0%10000m1033hPa68%
26-Jun-2024 00:00Clear Sky8°C4 mph, SW1%10000m1032hPa73%
26-Jun-2024 03:00Clear Sky8°C4 mph, SW4%10000m1033hPa70%
26-Jun-2024 06:00Clear Sky10°C2 mph, SW3%10000m1033hPa51%
26-Jun-2024 09:00Clear Sky17°C4 mph, NE1%10000m1032hPa42%
26-Jun-2024 12:00Clear Sky19°C4 mph, NE1%10000m1028hPa35%
26-Jun-2024 15:00Clear Sky14°C2 mph, N0%10000m1029hPa52%
26-Jun-2024 18:00Clear Sky11°C4 mph, SW0%10000m1032hPa60%
26-Jun-2024 21:00Clear Sky10°C4 mph, SW3%10000m1033hPa67%
27-Jun-2024 00:00Few Clouds10°C2 mph, SW16%10000m1033hPa70%
27-Jun-2024 03:00Clear Sky8°C4 mph, SW1%10000m1033hPa67%
27-Jun-2024 06:00Clear Sky10°C2 mph, SW0%10000m1034hPa57%
27-Jun-2024 09:00Clear Sky16°C4 mph, N0%10000m1032hPa50%
27-Jun-2024 12:00Clear Sky19°C4 mph, NE0%10000m1029hPa39%
27-Jun-2024 15:00Clear Sky14°C2 mph, NE0%10000m1029hPa56%
27-Jun-2024 18:00Clear Sky11°C7 mph, SW0%10000m1031hPa62%
27-Jun-2024 21:00Clear Sky10°C4 mph, SW0%10000m1032hPa65%
28-Jun-2024 00:00Clear Sky9°C4 mph, SW0%10000m1031hPa64%
28-Jun-2024 03:00Clear Sky8°C2 mph, SW0%10000m1030hPa61%
28-Jun-2024 06:00Clear Sky10°C2 mph, W0%10000m1031hPa52%
28-Jun-2024 09:00Clear Sky17°C4 mph, N0%10000m1028hPa40%
28-Jun-2024 12:00Clear Sky20°C4 mph, NE0%10000m1024hPa31%
28-Jun-2024 15:00Clear Sky15°C2 mph, SE0%10000m1024hPa44%
28-Jun-2024 18:00Clear Sky12°C4 mph, SW0%10000m1026hPa48%
28-Jun-2024 21:00Clear Sky11°C4 mph, SW0%10000m1026hPa50%
29-Jun-2024 00:00Clear Sky10°C4 mph, SW0%10000m1024hPa55%
29-Jun-2024 03:00Clear Sky9°C4 mph, SW0%10000m1024hPa57%
29-Jun-2024 06:00Clear Sky11°C2 mph, SW0%10000m1024hPa52%
29-Jun-2024 09:00Clear Sky18°C4 mph, N2%10000m1022hPa32%
29-Jun-2024 12:00Clear Sky21°C7 mph, NE8%10000m1018hPa25%
29-Jun-2024 15:00Few Clouds16°C2 mph, SE19%10000m1019hPa36%
29-Jun-2024 18:00Few Clouds13°C4 mph, SW21%10000m1021hPa45%
29-Jun-2024 21:00Clear Sky11°C7 mph, SW2%10000m1021hPa52%
30-Jun-2024 00:00Clear Sky10°C4 mph, SW1%10000m1021hPa55%
30-Jun-2024 03:00Clear Sky10°C4 mph, SW0%10000m1021hPa56%
30-Jun-2024 06:00Clear Sky12°C4 mph, SW3%10000m1021hPa49%
30-Jun-2024 09:00Clear Sky20°C4 mph, N6%10000m1019hPa31%
30-Jun-2024 12:00Clear Sky22°C7 mph, NE6%10000m1016hPa25%